New Richmond, WI

11:10 AM CDT del 29 Maggio 2015 (GMT -0500)
Country View Ridge | | Change Station
CLOSE
Current Station
Stazione meteo personale
Location: New Richmond, WI
Altitudine: 971 ft
Stazioni meteo nelle vicinanze

Alt. 971 ft 45.10 °N, 92.60 °W | Updated 20 seconds ago

Mostly Cloudy
Molto nuvoloso
69.4 °F
Sembra 69.4 °F
N
3.4
Vento Variabile Vento da SO
Gusts 4.9 mph

Oggi
Massima -- | Minima -- °F
--% Possibilità di precip.
Ieri
Massima -- | Minima -- °F
Precip. -- in
5:28 AM 8:47 PM
Gobba a ponente, 84% visible
Pressione 29.90 in
Visibilità 10.0 miglia
Nuvole Molto nuvoloso 1400 ft
Molto nuvoloso 2000 ft
Molto nuvoloso 2500 ft
Punto di rugiada 66 °F
Umidità 90%
Piovosità 0.66 in
Spessore del manto nevoso Non disponibile.
Raggi UV 2.0 fuori da 12
Polline .90 fuori da 12
Qualità dell'aria Non disponibile.
Flu Activity Sporadic
METAR KRNH 291555Z AUTO 23003KT 10SM BKN014 BKN020 BKN025 20/19 A2990 RMK AO2 T02010188

More Conditions Fewer Conditions

Pressione 29.90 in
Visibilità 10.0 miglia
Nuvole Molto nuvoloso 1400 ft
Molto nuvoloso 2000 ft
Molto nuvoloso 2500 ft
Punto di rugiada 66 °F
Umidità 90%
Piovosità 0.66 in
Spessore del manto nevoso Non disponibile.
Raggi UV 2.0 fuori da 12
Polline .90 fuori da 12
Qualità dell'aria Non disponibile.
Flu Activity Sporadic
METAR KRNH 291555Z AUTO 23003KT 10SM BKN014 BKN020 BKN025 20/19 A2990 RMK AO2 T02010188

More Conditions Fewer Conditions

10-Day Weather Forecast

Almanac

Astronomia

May. 29, 2015 Alba Tramonto
Ora attuale
Crepuscolo civile
Crepuscolo nautico
Crepuscolo astronomico
Luna
Estensione della luce visibile
Lunghezza del giorno
Tomorrow will be .
, % of the Moon is Illuminated

Gli estremi di oggi

State Highs State Lows

Community

WunderPhotos

Upload Photos

1,825,300 foto caricate!

WunderBlogs® & News

Nearby

Qualità dell'aria

  Qualità dell'aria Indice AQ Inquinante
Not available.

Profondità neve

Stazione Profondità Altitudine

Attività sismica

Città  Distanza Mag. Data & Ora
Minimo Magnitudo Mostrato è 2.5.

Temperature delle acque costiere

Località Temperatura

Stations

Stazioni meteo nelle vicinanze

Ubicazione della stazione Temp. Raffreddamento del vento Punto di rugiada Umidità Vento Precip. Alt. Aggiornato Tipo